sensor_id;sensor_type;location;lat;lon;timestamp;P1;P2;P0
24012;PMS7003;12220;50.194;18.948;2022-09-13T00:01:13;5;5;5
24012;PMS7003;12220;50.194;18.948;2022-09-13T00:03:25;7;7;5
24012;PMS7003;12220;50.194;18.948;2022-09-13T00:05:29;9;9;6
24012;PMS7003;12220;50.194;18.948;2022-09-13T00:07:30;7;7;6
24012;PMS7003;12220;50.194;18.948;2022-09-13T00:09:31;6;6;6
24012;PMS7003;12220;50.194;18.948;2022-09-13T00:11:39;6;6;4
24012;PMS7003;12220;50.194;18.948;2022-09-13T00:13:44;4;4;4
24012;PMS7003;12220;50.194;18.948;2022-09-13T00:15:46;4;3;3
24012;PMS7003;12220;50.194;18.948;2022-09-13T00:17:51;7;7;6
24012;PMS7003;12220;50.194;18.948;2022-09-13T00:19:54;5;4;4
24012;PMS7003;12220;50.194;18.948;2022-09-13T00:21:55;9;8;6
24012;PMS7003;12220;50.194;18.948;2022-09-13T00:23:57;6;6;6
24012;PMS7003;12220;50.194;18.948;2022-09-13T00:28:10;7;7;7
24012;PMS7003;12220;50.194;18.948;2022-09-13T00:30:11;10;9;8
24012;PMS7003;12220;50.194;18.948;2022-09-13T00:32:13;10;9;8
24012;PMS7003;12220;50.194;18.948;2022-09-13T00:34:14;6;6;5
24012;PMS7003;12220;50.194;18.948;2022-09-13T00:36:24;6;6;4
24012;PMS7003;12220;50.194;18.948;2022-09-13T00:38:26;4;4;4
24012;PMS7003;12220;50.194;18.948;2022-09-13T00:40:27;6;6;5
24012;PMS7003;12220;50.194;18.948;2022-09-13T00:42:32;6;6;6
24012;PMS7003;12220;50.194;18.948;2022-09-13T00:44:46;8;7;5
24012;PMS7003;12220;50.194;18.948;2022-09-13T00:47:01;8;8;6
24012;PMS7003;12220;50.194;18.948;2022-09-13T00:51:44;6;6;5
24012;PMS7003;12220;50.194;18.948;2022-09-13T00:53:52;6;6;5
24012;PMS7003;12220;50.194;18.948;2022-09-13T00:56:00;1;1;1
24012;PMS7003;12220;50.194;18.948;2022-09-13T00:58:12;4;4;4
24012;PMS7003;12220;50.194;18.948;2022-09-13T01:00:20;5;4;4
24012;PMS7003;12220;50.194;18.948;2022-09-13T01:02:26;5;5;4
24012;PMS7003;12220;50.194;18.948;2022-09-13T01:04:28;6;6;4
24012;PMS7003;12220;50.194;18.948;2022-09-13T01:06:34;5;5;5
24012;PMS7003;12220;50.194;18.948;2022-09-13T01:08:39;11;8;6
24012;PMS7003;12220;50.194;18.948;2022-09-13T01:10:43;7;7;5
24012;PMS7003;12220;50.194;18.948;2022-09-13T01:12:47;2;2;1
24012;PMS7003;12220;50.194;18.948;2022-09-13T01:14:56;5;5;4
24012;PMS7003;12220;50.194;18.948;2022-09-13T01:17:01;5;5;4
24012;PMS7003;12220;50.194;18.948;2022-09-13T01:19:04;4;4;4
24012;PMS7003;12220;50.194;18.948;2022-09-13T01:33:08;7;7;6
24012;PMS7003;12220;50.194;18.948;2022-09-13T01:35:15;8;8;7
24012;PMS7003;12220;50.194;18.948;2022-09-13T01:37:38;7;7;6
24012;PMS7003;12220;50.194;18.948;2022-09-13T01:58:47;6;6;5
24012;PMS7003;12220;50.194;18.948;2022-09-13T02:01:02;6;6;5
24012;PMS7003;12220;50.194;18.948;2022-09-13T02:03:09;9;7;6
24012;PMS7003;12220;50.194;18.948;2022-09-13T02:07:32;6;6;5
24012;PMS7003;12220;50.194;18.948;2022-09-13T02:09:39;6;6;5
24012;PMS7003;12220;50.194;18.948;2022-09-13T02:11:55;11;7;7
24012;PMS7003;12220;50.194;18.948;2022-09-13T02:14:06;8;8;6
24012;PMS7003;12220;50.194;18.948;2022-09-13T02:16:17;10;9;7
24012;PMS7003;12220;50.194;18.948;2022-09-13T02:18:29;7;7;6
24012;PMS7003;12220;50.194;18.948;2022-09-13T02:20:40;8;8;8
24012;PMS7003;12220;50.194;18.948;2022-09-13T02:22:44;11;9;8
24012;PMS7003;12220;50.194;18.948;2022-09-13T02:24:52;8;8;6
24012;PMS7003;12220;50.194;18.948;2022-09-13T02:26:58;7;7;5
24012;PMS7003;12220;50.194;18.948;2022-09-13T02:29:06;9;9;7
24012;PMS7003;12220;50.194;18.948;2022-09-13T02:31:11;9;6;5
24012;PMS7003;12220;50.194;18.948;2022-09-13T02:33:25;12;12;9
24012;PMS7003;12220;50.194;18.948;2022-09-13T02:35:35;10;9;7
24012;PMS7003;12220;50.194;18.948;2022-09-13T02:37:48;12;9;7
24012;PMS7003;12220;50.194;18.948;2022-09-13T02:40:01;11;11;6
24012;PMS7003;12220;50.194;18.948;2022-09-13T02:44:25;10;10;8
24012;PMS7003;12220;50.194;18.948;2022-09-13T02:46:40;8;7;3
24012;PMS7003;12220;50.194;18.948;2022-09-13T02:51:19;8;8;6
24012;PMS7003;12220;50.194;18.948;2022-09-13T02:53:43;8;7;7
24012;PMS7003;12220;50.194;18.948;2022-09-13T02:56:20;10;7;6
24012;PMS7003;12220;50.194;18.948;2022-09-13T02:58:40;11;11;8
24012;PMS7003;12220;50.194;18.948;2022-09-13T03:00:42;8;8;6
24012;PMS7003;12220;50.194;18.948;2022-09-13T03:02:46;10;8;8
24012;PMS7003;12220;50.194;18.948;2022-09-13T03:04:51;13;13;10
24012;PMS7003;12220;50.194;18.948;2022-09-13T03:06:52;7;6;5
24012;PMS7003;12220;50.194;18.948;2022-09-13T03:09:01;8;8;7
24012;PMS7003;12220;50.194;18.948;2022-09-13T03:11:09;8;8;5
24012;PMS7003;12220;50.194;18.948;2022-09-13T03:15:35;7;7;6
24012;PMS7003;12220;50.194;18.948;2022-09-13T03:24:29;10;9;7
24012;PMS7003;12220;50.194;18.948;2022-09-13T03:26:52;9;8;6
24012;PMS7003;12220;50.194;18.948;2022-09-13T03:29:14;9;8;7
24012;PMS7003;12220;50.194;18.948;2022-09-13T03:31:32;8;7;6
24012;PMS7003;12220;50.194;18.948;2022-09-13T03:33:45;13;10;8
24012;PMS7003;12220;50.194;18.948;2022-09-13T03:40:33;13;10;7
24012;PMS7003;12220;50.194;18.948;2022-09-13T03:42:34;15;12;8
24012;PMS7003;12220;50.194;18.948;2022-09-13T03:44:43;10;10;7
24012;PMS7003;12220;50.194;18.948;2022-09-13T03:46:48;7;7;7
24012;PMS7003;12220;50.194;18.948;2022-09-13T03:48:54;9;9;5
24012;PMS7003;12220;50.194;18.948;2022-09-13T03:51:00;10;9;5
24012;PMS7003;12220;50.194;18.948;2022-09-13T03:53:03;10;10;7
24012;PMS7003;12220;50.194;18.948;2022-09-13T03:55:08;14;9;7
24012;PMS7003;12220;50.194;18.948;2022-09-13T03:57:11;11;11;9
24012;PMS7003;12220;50.194;18.948;2022-09-13T03:59:18;9;9;7
24012;PMS7003;12220;50.194;18.948;2022-09-13T04:01:20;10;10;8
24012;PMS7003;12220;50.194;18.948;2022-09-13T04:03:23;8;8;6
24012;PMS7003;12220;50.194;18.948;2022-09-13T04:05:24;8;8;7
24012;PMS7003;12220;50.194;18.948;2022-09-13T04:07:26;9;8;6
24012;PMS7003;12220;50.194;18.948;2022-09-13T04:09:29;11;10;8
24012;PMS7003;12220;50.194;18.948;2022-09-13T04:11:31;11;10;8
24012;PMS7003;12220;50.194;18.948;2022-09-13T04:13:36;11;10;6
24012;PMS7003;12220;50.194;18.948;2022-09-13T04:15:38;8;8;7
24012;PMS7003;12220;50.194;18.948;2022-09-13T04:17:44;9;9;8
24012;PMS7003;12220;50.194;18.948;2022-09-13T04:19:45;14;13;10
24012;PMS7003;12220;50.194;18.948;2022-09-13T04:21:50;8;8;8
24012;PMS7003;12220;50.194;18.948;2022-09-13T04:23:52;13;12;9
24012;PMS7003;12220;50.194;18.948;2022-09-13T04:26:00;8;7;5
24012;PMS7003;12220;50.194;18.948;2022-09-13T04:28:03;12;12;7
24012;PMS7003;12220;50.194;18.948;2022-09-13T04:30:04;11;10;8
24012;PMS7003;12220;50.194;18.948;2022-09-13T04:32:06;11;9;7
24012;PMS7003;12220;50.194;18.948;2022-09-13T04:34:14;12;12;9
24012;PMS7003;12220;50.194;18.948;2022-09-13T04:36:18;10;10;9
24012;PMS7003;12220;50.194;18.948;2022-09-13T04:38:22;11;9;8
24012;PMS7003;12220;50.194;18.948;2022-09-13T04:40:23;10;10;8
24012;PMS7003;12220;50.194;18.948;2022-09-13T04:42:29;8;7;6
24012;PMS7003;12220;50.194;18.948;2022-09-13T04:44:30;10;10;6
24012;PMS7003;12220;50.194;18.948;2022-09-13T04:46:33;11;11;6
24012;PMS7003;12220;50.194;18.948;2022-09-13T04:48:34;7;7;4
24012;PMS7003;12220;50.194;18.948;2022-09-13T04:50:44;11;9;7
24012;PMS7003;12220;50.194;18.948;2022-09-13T04:52:53;13;13;8
24012;PMS7003;12220;50.194;18.948;2022-09-13T04:54:55;9;9;7
24012;PMS7003;12220;50.194;18.948;2022-09-13T04:57:01;12;12;9
24012;PMS7003;12220;50.194;18.948;2022-09-13T04:59:02;11;10;8
24012;PMS7003;12220;50.194;18.948;2022-09-13T05:01:04;10;9;7
24012;PMS7003;12220;50.194;18.948;2022-09-13T05:03:07;9;7;6
24012;PMS7003;12220;50.194;18.948;2022-09-13T05:05:08;10;10;9
24012;PMS7003;12220;50.194;18.948;2022-09-13T05:07:17;10;9;8
24012;PMS7003;12220;50.194;18.948;2022-09-13T05:09:18;9;9;7
24012;PMS7003;12220;50.194;18.948;2022-09-13T05:11:23;7;7;5
24012;PMS7003;12220;50.194;18.948;2022-09-13T05:13:26;8;8;5
24012;PMS7003;12220;50.194;18.948;2022-09-13T05:15:32;11;9;6
24012;PMS7003;12220;50.194;18.948;2022-09-13T05:17:33;14;12;10
24012;PMS7003;12220;50.194;18.948;2022-09-13T05:19:35;17;16;11
24012;PMS7003;12220;50.194;18.948;2022-09-13T05:21:36;21;16;11
24012;PMS7003;12220;50.194;18.948;2022-09-13T05:23:48;18;16;11
24012;PMS7003;12220;50.194;18.948;2022-09-13T05:25:53;15;15;13
24012;PMS7003;12220;50.194;18.948;2022-09-13T05:27:58;20;16;11
24012;PMS7003;12220;50.194;18.948;2022-09-13T05:30:01;18;17;12
24012;PMS7003;12220;50.194;18.948;2022-09-13T05:32:03;16;15;11
24012;PMS7003;12220;50.194;18.948;2022-09-13T05:34:06;18;16;11
24012;PMS7003;12220;50.194;18.948;2022-09-13T05:36:10;13;13;9
24012;PMS7003;12220;50.194;18.948;2022-09-13T05:38:11;17;15;10
24012;PMS7003;12220;50.194;18.948;2022-09-13T05:40:17;15;13;8
24012;PMS7003;12220;50.194;18.948;2022-09-13T05:42:18;13;10;8
24012;PMS7003;12220;50.194;18.948;2022-09-13T05:44:20;10;10;8
24012;PMS7003;12220;50.194;18.948;2022-09-13T05:46:21;14;14;9
24012;PMS7003;12220;50.194;18.948;2022-09-13T05:48:33;14;13;9
24012;PMS7003;12220;50.194;18.948;2022-09-13T05:50:37;16;14;10
24012;PMS7003;12220;50.194;18.948;2022-09-13T05:52:39;14;14;10
24012;PMS7003;12220;50.194;18.948;2022-09-13T05:54:43;18;14;13
24012;PMS7003;12220;50.194;18.948;2022-09-13T05:56:47;17;13;9
24012;PMS7003;12220;50.194;18.948;2022-09-13T05:58:52;15;11;7
24012;PMS7003;12220;50.194;18.948;2022-09-13T06:00:55;14;13;9
24012;PMS7003;12220;50.194;18.948;2022-09-13T06:02:57;18;17;12
24012;PMS7003;12220;50.194;18.948;2022-09-13T06:05:02;20;18;13
24012;PMS7003;12220;50.194;18.948;2022-09-13T06:07:04;17;17;12
24012;PMS7003;12220;50.194;18.948;2022-09-13T06:09:05;19;17;12
24012;PMS7003;12220;50.194;18.948;2022-09-13T06:11:09;14;14;9
24012;PMS7003;12220;50.194;18.948;2022-09-13T06:13:17;21;20;15
24012;PMS7003;12220;50.194;18.948;2022-09-13T06:15:18;19;19;14
24012;PMS7003;12220;50.194;18.948;2022-09-13T06:17:19;19;19;13
24012;PMS7003;12220;50.194;18.948;2022-09-13T06:19:21;23;21;16
24012;PMS7003;12220;50.194;18.948;2022-09-13T06:21:32;18;16;13
24012;PMS7003;12220;50.194;18.948;2022-09-13T06:23:34;20;15;12
24012;PMS7003;12220;50.194;18.948;2022-09-13T06:25:35;16;13;12
24012;PMS7003;12220;50.194;18.948;2022-09-13T06:27:37;23;20;15
24012;PMS7003;12220;50.194;18.948;2022-09-13T06:29:47;21;20;16
24012;PMS7003;12220;50.194;18.948;2022-09-13T06:31:48;16;15;12
24012;PMS7003;12220;50.194;18.948;2022-09-13T06:33:54;14;14;10
24012;PMS7003;12220;50.194;18.948;2022-09-13T06:36:00;18;14;12
24012;PMS7003;12220;50.194;18.948;2022-09-13T06:38:05;18;17;14
24012;PMS7003;12220;50.194;18.948;2022-09-13T06:40:07;20;19;15
24012;PMS7003;12220;50.194;18.948;2022-09-13T06:42:09;18;16;12
24012;PMS7003;12220;50.194;18.948;2022-09-13T06:44:10;21;19;14
24012;PMS7003;12220;50.194;18.948;2022-09-13T06:46:17;25;22;14
24012;PMS7003;12220;50.194;18.948;2022-09-13T06:48:22;21;20;15
24012;PMS7003;12220;50.194;18.948;2022-09-13T06:50:23;23;19;14
24012;PMS7003;12220;50.194;18.948;2022-09-13T06:52:25;19;19;14
24012;PMS7003;12220;50.194;18.948;2022-09-13T06:54:32;26;24;17
24012;PMS7003;12220;50.194;18.948;2022-09-13T06:56:34;14;14;11
24012;PMS7003;12220;50.194;18.948;2022-09-13T06:58:37;17;17;11
24012;PMS7003;12220;50.194;18.948;2022-09-13T07:00:42;20;16;12
24012;PMS7003;12220;50.194;18.948;2022-09-13T07:02:50;21;15;13
24012;PMS7003;12220;50.194;18.948;2022-09-13T07:04:52;23;16;11
24012;PMS7003;12220;50.194;18.948;2022-09-13T07:06:53;16;11;10
24012;PMS7003;12220;50.194;18.948;2022-09-13T07:08:55;16;16;12
24012;PMS7003;12220;50.194;18.948;2022-09-13T07:11:05;14;13;10
24012;PMS7003;12220;50.194;18.948;2022-09-13T07:13:10;11;11;10
24012;PMS7003;12220;50.194;18.948;2022-09-13T07:15:11;17;16;12
24012;PMS7003;12220;50.194;18.948;2022-09-13T07:17:13;13;12;10
24012;PMS7003;12220;50.194;18.948;2022-09-13T07:19:17;15;13;12
24012;PMS7003;12220;50.194;18.948;2022-09-13T07:21:23;18;18;13
24012;PMS7003;12220;50.194;18.948;2022-09-13T07:25:56;15;13;11
24012;PMS7003;12220;50.194;18.948;2022-09-13T07:28:02;13;12;11
24012;PMS7003;12220;50.194;18.948;2022-09-13T07:30:06;19;18;13
24012;PMS7003;12220;50.194;18.948;2022-09-13T07:32:08;16;15;12
24012;PMS7003;12220;50.194;18.948;2022-09-13T07:34:14;21;18;14
24012;PMS7003;12220;50.194;18.948;2022-09-13T07:36:17;16;15;13
24012;PMS7003;12220;50.194;18.948;2022-09-13T07:38:21;17;16;10
24012;PMS7003;12220;50.194;18.948;2022-09-13T07:40:23;20;14;11
24012;PMS7003;12220;50.194;18.948;2022-09-13T07:42:24;20;12;10
24012;PMS7003;12220;50.194;18.948;2022-09-13T07:44:26;11;10;9
24012;PMS7003;12220;50.194;18.948;2022-09-13T11:07:33;7;7;7
24012;PMS7003;12220;50.194;18.948;2022-09-13T11:21:35;6;6;5
24012;PMS7003;12220;50.194;18.948;2022-09-13T11:30:55;6;6;6
24012;PMS7003;12220;50.194;18.948;2022-09-13T11:35:24;8;8;7
24012;PMS7003;12220;50.194;18.948;2022-09-13T11:37:48;5;5;5
24012;PMS7003;12220;50.194;18.948;2022-09-13T11:40:10;5;5;5
24012;PMS7003;12220;50.194;18.948;2022-09-13T12:51:53;4;4;3
24012;PMS7003;12220;50.194;18.948;2022-09-13T12:54:14;7;7;6
24012;PMS7003;12220;50.194;18.948;2022-09-13T12:56:37;11;7;6
24012;PMS7003;12220;50.194;18.948;2022-09-13T13:01:17;5;5;5
24012;PMS7003;12220;50.194;18.948;2022-09-13T13:03:36;5;5;5
24012;PMS7003;12220;50.194;18.948;2022-09-13T13:06:05;7;7;6
24012;PMS7003;12220;50.194;18.948;2022-09-13T13:08:24;7;7;6
24012;PMS7003;12220;50.194;18.948;2022-09-13T13:10:38;7;7;6
24012;PMS7003;12220;50.194;18.948;2022-09-13T13:12:40;7;7;6
24012;PMS7003;12220;50.194;18.948;2022-09-13T13:14:42;6;6;6
24012;PMS7003;12220;50.194;18.948;2022-09-13T13:16:53;4;4;4
24012;PMS7003;12220;50.194;18.948;2022-09-13T13:18:55;8;6;5
24012;PMS7003;12220;50.194;18.948;2022-09-13T13:27:39;6;6;5
24012;PMS7003;12220;50.194;18.948;2022-09-13T13:29:44;6;5;5
24012;PMS7003;12220;50.194;18.948;2022-09-13T13:36:20;5;5;4
24012;PMS7003;12220;50.194;18.948;2022-09-13T13:40:36;7;7;4
24012;PMS7003;12220;50.194;18.948;2022-09-13T13:42:46;6;6;6
24012;PMS7003;12220;50.194;18.948;2022-09-13T14:00:52;7;7;6
24012;PMS7003;12220;50.194;18.948;2022-09-13T14:27:29;6;6;6
24012;PMS7003;12220;50.194;18.948;2022-09-13T14:29:34;8;8;6
24012;PMS7003;12220;50.194;18.948;2022-09-13T14:31:44;6;6;5
24012;PMS7003;12220;50.194;18.948;2022-09-13T14:34:18;5;5;5
24012;PMS7003;12220;50.194;18.948;2022-09-13T14:36:23;7;6;5
24012;PMS7003;12220;50.194;18.948;2022-09-13T14:40:52;7;4;4
24012;PMS7003;12220;50.194;18.948;2022-09-13T14:42:58;4;4;4
24012;PMS7003;12220;50.194;18.948;2022-09-13T14:57:18;7;7;7
24012;PMS7003;12220;50.194;18.948;2022-09-13T15:01:38;5;5;5
24012;PMS7003;12220;50.194;18.948;2022-09-13T15:03:47;7;7;6
24012;PMS7003;12220;50.194;18.948;2022-09-13T15:05:53;4;4;4
24012;PMS7003;12220;50.194;18.948;2022-09-13T15:07:59;7;6;6
24012;PMS7003;12220;50.194;18.948;2022-09-13T16:33:53;4;4;4
24012;PMS7003;12220;50.194;18.948;2022-09-13T16:35:55;4;4;4
24012;PMS7003;12220;50.194;18.948;2022-09-13T16:37:57;7;5;5
24012;PMS7003;12220;50.194;18.948;2022-09-13T16:39:58;6;6;5
24012;PMS7003;12220;50.194;18.948;2022-09-13T16:42:08;7;7;6
24012;PMS7003;12220;50.194;18.948;2022-09-13T16:44:09;6;6;5
24012;PMS7003;12220;50.194;18.948;2022-09-13T16:46:11;6;6;6
24012;PMS7003;12220;50.194;18.948;2022-09-13T16:48:14;8;8;7
24012;PMS7003;12220;50.194;18.948;2022-09-13T16:50:23;8;6;5
24012;PMS7003;12220;50.194;18.948;2022-09-13T16:52:24;5;4;4
24012;PMS7003;12220;50.194;18.948;2022-09-13T16:54:27;3;3;3
24012;PMS7003;12220;50.194;18.948;2022-09-13T16:56:34;5;5;4
24012;PMS7003;12220;50.194;18.948;2022-09-13T16:58:38;6;6;4
24012;PMS7003;12220;50.194;18.948;2022-09-13T17:05:24;6;6;5
24012;PMS7003;12220;50.194;18.948;2022-09-13T17:07:26;9;5;4
24012;PMS7003;12220;50.194;18.948;2022-09-13T17:09:37;8;8;7
24012;PMS7003;12220;50.194;18.948;2022-09-13T17:12:07;7;7;6
24012;PMS7003;12220;50.194;18.948;2022-09-13T17:14:11;5;5;4
24012;PMS7003;12220;50.194;18.948;2022-09-13T17:16:24;5;4;4
24012;PMS7003;12220;50.194;18.948;2022-09-13T17:18:30;6;6;5
24012;PMS7003;12220;50.194;18.948;2022-09-13T17:20:33;10;10;8
24012;PMS7003;12220;50.194;18.948;2022-09-13T17:22:34;7;6;5
24012;PMS7003;12220;50.194;18.948;2022-09-13T17:24:38;4;4;4
24012;PMS7003;12220;50.194;18.948;2022-09-13T17:27:26;6;6;5
24012;PMS7003;12220;50.194;18.948;2022-09-13T17:29:06;5;5;5
24012;PMS7003;12220;50.194;18.948;2022-09-13T17:33:19;3;3;3
24012;PMS7003;12220;50.194;18.948;2022-09-13T17:35:20;7;7;5
24012;PMS7003;12220;50.194;18.948;2022-09-13T17:37:22;6;6;5
24012;PMS7003;12220;50.194;18.948;2022-09-13T17:39:28;6;6;5
24012;PMS7003;12220;50.194;18.948;2022-09-13T17:41:30;4;4;4
24012;PMS7003;12220;50.194;18.948;2022-09-13T17:43:32;6;6;4
24012;PMS7003;12220;50.194;18.948;2022-09-13T17:45:35;7;7;5
24012;PMS7003;12220;50.194;18.948;2022-09-13T17:47:46;5;5;4
24012;PMS7003;12220;50.194;18.948;2022-09-13T17:49:52;2;2;2
24012;PMS7003;12220;50.194;18.948;2022-09-13T17:51:54;7;7;6
24012;PMS7003;12220;50.194;18.948;2022-09-13T17:54:04;9;6;6
24012;PMS7003;12220;50.194;18.948;2022-09-13T17:56:32;6;6;5
24012;PMS7003;12220;50.194;18.948;2022-09-13T18:03:06;10;8;7
24012;PMS7003;12220;50.194;18.948;2022-09-13T18:05:07;9;9;7
24012;PMS7003;12220;50.194;18.948;2022-09-13T18:07:09;6;5;5
24012;PMS7003;12220;50.194;18.948;2022-09-13T18:11:41;9;8;7
24012;PMS7003;12220;50.194;18.948;2022-09-13T18:13:44;9;9;7
24012;PMS7003;12220;50.194;18.948;2022-09-13T18:15:56;8;8;7
24012;PMS7003;12220;50.194;18.948;2022-09-13T18:17:58;5;5;4
24012;PMS7003;12220;50.194;18.948;2022-09-13T18:20:01;7;5;4
24012;PMS7003;12220;50.194;18.948;2022-09-13T18:22:03;8;6;5
24012;PMS7003;12220;50.194;18.948;2022-09-13T18:26:35;10;7;6
24012;PMS7003;12220;50.194;18.948;2022-09-13T18:28:36;4;4;3
24012;PMS7003;12220;50.194;18.948;2022-09-13T18:30:50;7;7;6
24012;PMS7003;12220;50.194;18.948;2022-09-13T18:32:53;4;4;3
24012;PMS7003;12220;50.194;18.948;2022-09-13T18:34:54;5;5;5
24012;PMS7003;12220;50.194;18.948;2022-09-13T18:36:55;7;7;6
24012;PMS7003;12220;50.194;18.948;2022-09-13T18:39:02;7;7;6
24012;PMS7003;12220;50.194;18.948;2022-09-13T18:41:12;6;6;5
24012;PMS7003;12220;50.194;18.948;2022-09-13T18:43:15;8;7;6
24012;PMS7003;12220;50.194;18.948;2022-09-13T18:45:25;7;7;7
24012;PMS7003;12220;50.194;18.948;2022-09-13T18:49:54;10;10;9
24012;PMS7003;12220;50.194;18.948;2022-09-13T18:52:02;9;9;8
24012;PMS7003;12220;50.194;18.948;2022-09-13T18:54:07;9;6;5
24012;PMS7003;12220;50.194;18.948;2022-09-13T18:56:15;7;6;5
24012;PMS7003;12220;50.194;18.948;2022-09-13T18:58:23;7;7;6
24012;PMS7003;12220;50.194;18.948;2022-09-13T19:02:42;10;10;7
24012;PMS7003;12220;50.194;18.948;2022-09-13T19:04:47;7;7;6
24012;PMS7003;12220;50.194;18.948;2022-09-13T19:06:52;7;7;6
24012;PMS7003;12220;50.194;18.948;2022-09-13T19:09:09;11;11;8
24012;PMS7003;12220;50.194;18.948;2022-09-13T19:11:14;9;9;7
24012;PMS7003;12220;50.194;18.948;2022-09-13T19:13:17;9;9;7
24012;PMS7003;12220;50.194;18.948;2022-09-13T19:15:18;10;8;6
24012;PMS7003;12220;50.194;18.948;2022-09-13T19:17:20;8;8;7
24012;PMS7003;12220;50.194;18.948;2022-09-13T19:19:39;8;8;7
24012;PMS7003;12220;50.194;18.948;2022-09-13T19:21:41;15;13;11
24012;PMS7003;12220;50.194;18.948;2022-09-13T19:23:43;11;11;10
24012;PMS7003;12220;50.194;18.948;2022-09-13T19:25:54;7;6;6
24012;PMS7003;12220;50.194;18.948;2022-09-13T19:27:55;11;11;9
24012;PMS7003;12220;50.194;18.948;2022-09-13T19:29:57;10;10;8
24012;PMS7003;12220;50.194;18.948;2022-09-13T19:32:15;9;8;7
24012;PMS7003;12220;50.194;18.948;2022-09-13T19:34:20;9;9;6
24012;PMS7003;12220;50.194;18.948;2022-09-13T19:36:31;11;9;7
24012;PMS7003;12220;50.194;18.948;2022-09-13T19:38:39;11;11;9
24012;PMS7003;12220;50.194;18.948;2022-09-13T19:40:41;11;11;8
24012;PMS7003;12220;50.194;18.948;2022-09-13T19:42:43;9;8;8
24012;PMS7003;12220;50.194;18.948;2022-09-13T19:44:46;7;7;6
24012;PMS7003;12220;50.194;18.948;2022-09-13T19:46:48;5;5;4
24012;PMS7003;12220;50.194;18.948;2022-09-13T19:48:49;9;8;8
24012;PMS7003;12220;50.194;18.948;2022-09-13T19:50:52;13;10;8
24012;PMS7003;12220;50.194;18.948;2022-09-13T19:53:01;9;9;8
24012;PMS7003;12220;50.194;18.948;2022-09-13T19:55:02;9;9;8
24012;PMS7003;12220;50.194;18.948;2022-09-13T19:57:04;11;10;9
24012;PMS7003;12220;50.194;18.948;2022-09-13T19:59:09;12;12;9
24012;PMS7003;12220;50.194;18.948;2022-09-13T20:01:18;16;12;9
24012;PMS7003;12220;50.194;18.948;2022-09-13T20:03:20;11;11;7
24012;PMS7003;12220;50.194;18.948;2022-09-13T20:05:21;12;9;8
24012;PMS7003;12220;50.194;18.948;2022-09-13T20:07:23;7;7;6
24012;PMS7003;12220;50.194;18.948;2022-09-13T20:09:31;9;9;6
24012;PMS7003;12220;50.194;18.948;2022-09-13T20:11:32;12;11;10
24012;PMS7003;12220;50.194;18.948;2022-09-13T20:13:34;11;11;9
24012;PMS7003;12220;50.194;18.948;2022-09-13T20:15:37;9;9;8
24012;PMS7003;12220;50.194;18.948;2022-09-13T20:17:46;12;12;10
24012;PMS7003;12220;50.194;18.948;2022-09-13T20:19:50;13;13;9
24012;PMS7003;12220;50.194;18.948;2022-09-13T20:21:52;9;9;7
24012;PMS7003;12220;50.194;18.948;2022-09-13T20:23:57;10;10;9
24012;PMS7003;12220;50.194;18.948;2022-09-13T20:26:02;12;12;10
24012;PMS7003;12220;50.194;18.948;2022-09-13T20:28:08;12;11;8
24012;PMS7003;12220;50.194;18.948;2022-09-13T20:30:12;11;11;10
24012;PMS7003;12220;50.194;18.948;2022-09-13T20:32:15;10;9;8
24012;PMS7003;12220;50.194;18.948;2022-09-13T20:34:19;14;11;9
24012;PMS7003;12220;50.194;18.948;2022-09-13T20:36:21;11;11;9
24012;PMS7003;12220;50.194;18.948;2022-09-13T20:38:27;17;11;10
24012;PMS7003;12220;50.194;18.948;2022-09-13T20:40:28;10;10;9
24012;PMS7003;12220;50.194;18.948;2022-09-13T20:42:31;14;14;10
24012;PMS7003;12220;50.194;18.948;2022-09-13T20:44:33;9;9;7
24012;PMS7003;12220;50.194;18.948;2022-09-13T20:46:35;9;9;7
24012;PMS7003;12220;50.194;18.948;2022-09-13T20:48:38;12;11;8
24012;PMS7003;12220;50.194;18.948;2022-09-13T20:50:54;14;12;9
24012;PMS7003;12220;50.194;18.948;2022-09-13T20:53:08;10;9;8
24012;PMS7003;12220;50.194;18.948;2022-09-13T20:55:10;8;8;7
24012;PMS7003;12220;50.194;18.948;2022-09-13T20:57:11;11;9;9
24012;PMS7003;12220;50.194;18.948;2022-09-13T21:08:58;9;9;7
24012;PMS7003;12220;50.194;18.948;2022-09-13T21:11:09;11;11;8
24012;PMS7003;12220;50.194;18.948;2022-09-13T21:13:18;11;10;9
24012;PMS7003;12220;50.194;18.948;2022-09-13T21:15:19;11;11;9
24012;PMS7003;12220;50.194;18.948;2022-09-13T21:17:20;12;12;10
24012;PMS7003;12220;50.194;18.948;2022-09-13T21:19:22;10;10;9
24012;PMS7003;12220;50.194;18.948;2022-09-13T21:21:26;9;9;7
24012;PMS7003;12220;50.194;18.948;2022-09-13T21:23:34;11;9;8
24012;PMS7003;12220;50.194;18.948;2022-09-13T21:25:40;9;9;7
24012;PMS7003;12220;50.194;18.948;2022-09-13T21:27:43;7;7;6
24012;PMS7003;12220;50.194;18.948;2022-09-13T21:29:46;13;10;8
24012;PMS7003;12220;50.194;18.948;2022-09-13T21:31:47;10;10;9
24012;PMS7003;12220;50.194;18.948;2022-09-13T21:33:55;12;12;10
24012;PMS7003;12220;50.194;18.948;2022-09-13T21:35:59;11;10;9
24012;PMS7003;12220;50.194;18.948;2022-09-13T21:38:02;10;10;8
24012;PMS7003;12220;50.194;18.948;2022-09-13T21:40:08;8;8;8
24012;PMS7003;12220;50.194;18.948;2022-09-13T21:42:10;12;8;7
24012;PMS7003;12220;50.194;18.948;2022-09-13T21:44:11;8;8;8
24012;PMS7003;12220;50.194;18.948;2022-09-13T21:48:36;8;8;7
24012;PMS7003;12220;50.194;18.948;2022-09-13T21:50:40;9;9;8
24012;PMS7003;12220;50.194;18.948;2022-09-13T21:52:41;7;7;6
24012;PMS7003;12220;50.194;18.948;2022-09-13T21:54:43;9;9;7
24012;PMS7003;12220;50.194;18.948;2022-09-13T21:56:51;12;12;10
24012;PMS7003;12220;50.194;18.948;2022-09-13T21:59:02;8;8;7
24012;PMS7003;12220;50.194;18.948;2022-09-13T22:03:16;9;9;8
24012;PMS7003;12220;50.194;18.948;2022-09-13T22:05:18;9;9;7
24012;PMS7003;12220;50.194;18.948;2022-09-13T22:07:19;7;7;6
24012;PMS7003;12220;50.194;18.948;2022-09-13T22:09:21;8;8;8
24012;PMS7003;12220;50.194;18.948;2022-09-13T22:11:27;7;7;7
24012;PMS7003;12220;50.194;18.948;2022-09-13T22:13:31;11;7;6
24012;PMS7003;12220;50.194;18.948;2022-09-13T22:15:33;9;9;8
24012;PMS7003;12220;50.194;18.948;2022-09-13T22:17:35;8;8;6
24012;PMS7003;12220;50.194;18.948;2022-09-13T22:19:38;9;9;8
24012;PMS7003;12220;50.194;18.948;2022-09-13T22:21:44;8;8;7
24012;PMS7003;12220;50.194;18.948;2022-09-13T22:23:49;10;10;7
24012;PMS7003;12220;50.194;18.948;2022-09-13T22:25:53;11;10;7
24012;PMS7003;12220;50.194;18.948;2022-09-13T22:27:54;9;9;7
24012;PMS7003;12220;50.194;18.948;2022-09-13T22:29:58;10;8;7
24012;PMS7003;12220;50.194;18.948;2022-09-13T22:32:02;8;7;7
24012;PMS7003;12220;50.194;18.948;2022-09-13T22:34:04;10;10;8
24012;PMS7003;12220;50.194;18.948;2022-09-13T22:36:13;9;9;8
24012;PMS7003;12220;50.194;18.948;2022-09-13T22:38:15;3;3;3
24012;PMS7003;12220;50.194;18.948;2022-09-13T22:40:16;8;8;6
24012;PMS7003;12220;50.194;18.948;2022-09-13T22:42:18;9;9;7
24012;PMS7003;12220;50.194;18.948;2022-09-13T22:44:19;10;9;7